DucheSS Of Scandinavia — OUZI2 — position and weather

sailwx.info

Track history (hours):
 
Tides and Currents Weather Stations Pressure Air Temp Water Temp Dewpoint Dewpoint Depression Visibility Wind Speed Wind Dir Waves Ship Positions

DucheSS Of Scandinavia

Operator: DFDS A/S

Last reported at 2019-Apr-26 04:00 UTC. Time now 2019-Apr-26 04:27 UTC.
Position N 59°06' E 010°14'.

Length 134 m; draft 5.4 m.

Type: Passenger vessel. MMSI: 219002929.

Date/timePositionNaut miles runAvg speedWind from/ knotsBaromVisibWave heightAir tempDewpointWater temp
2019-Apr-26 04:00N 59°06' E 010°14'0 0.0
2019-Apr-26 03:30N 59°06' E 010°14'0 0.0
2019-Apr-26 03:00N 59°06' E 010°14'0 0.0
2019-Apr-26 02:28N 59°06' E 010°14'0 0.0
2019-Apr-26 01:58N 59°06' E 010°14'0 0.0
2019-Apr-26 01:28N 59°06' E 010°14'0 0.0
2019-Apr-26 00:59N 59°06' E 010°14'0 0.0
2019-Apr-26 00:29N 59°06' E 010°14'0 0.0
2019-Apr-25 23:59N 59°06' E 010°14'0 0.0
2019-Apr-25 23:30N 59°06' E 010°14'0 0.0
2019-Apr-25 23:00N 59°06' E 010°14'0 0.0
2019-Apr-25 22:30N 59°06' E 010°14'0 0.0
2019-Apr-25 21:55N 59°06' E 010°14'0 0.0
2019-Apr-25 21:28N 59°06' E 010°14'0 0.0
2019-Apr-25 20:58N 59°06' E 010°14'0 0.0
2019-Apr-25 20:29N 59°06' E 010°14'0 0.0
2019-Apr-25 19:59N 59°06' E 010°14'0 0.0
2019-Apr-25 19:29N 59°06' E 010°14'1 3.0
2019-Apr-25 19:01N 59°08' E 010°14'3 6.3
2019-Apr-25 18:31N 59°04' E 010°15'713.4
2019-Apr-25 18:00N 59°01' E 010°26'815.8
2019-Apr-25 17:30N 59°01' E 010°41'815.5
2019-Apr-25 17:01N 59°00' E 010°56'815.3
2019-Apr-25 16:30N 58°56' E 011°08'1 2.1
2019-Apr-25 16:01N 58°56' E 011°10'4 8.1
2019-Apr-25 15:30N 58°58' E 011°03'714.7
2019-Apr-25 15:00N 59°01' E 010°50'815.3
2019-Apr-25 14:31N 59°01' E 010°36'815.2
2019-Apr-25 14:00N 59°01' E 010°21'612.7
2019-Apr-25 13:30N 59°06' E 010°14'1 2.8
2019-Apr-25 13:01N 59°08' E 010°14'0 0.5
2019-Apr-25 12:30N 59°07' E 010°14'611.5
2019-Apr-25 12:00N 59°02' E 010°16'713.9
2019-Apr-25 11:30N 59°01' E 010°29'713.8
2019-Apr-25 11:01N 59°01' E 010°43'713.6
2019-Apr-25 10:31N 59°00' E 010°56'815.3
2019-Apr-25 10:00N 58°56' E 011°08'1 2.1
2019-Apr-25 09:30N 58°56' E 011°10'0 0.5
2019-Apr-25 09:00N 58°56' E 011°10'713.4
2019-Apr-25 08:30N 58°60' E 010°59'714.4
2019-Apr-25 08:00N 59°02' E 010°46'714.8
2019-Apr-25 07:31N 59°01' E 010°31'714.6
2019-Apr-25 07:01N 59°01' E 010°17'612.5
2019-Apr-25 06:30N 59°07' E 010°14'0 0.5
2019-Apr-25 06:01N 59°08' E 010°14'1 2.9
2019-Apr-25 05:30N 59°06' E 010°14'0 0.0
2019-Apr-25 05:00N 59°06' E 010°14'0 0.0
2019-Apr-25 04:30N 59°06' E 010°14'0 0.0
2019-Apr-25 03:58N 59°06' E 010°14'0 0.0
2019-Apr-25 03:28N 59°06' E 010°14'0 0.0
2019-Apr-25 02:58N 59°06' E 010°14'0 0.0
2019-Apr-25 02:29N 59°06' E 010°14'0 0.0
2019-Apr-25 01:59N 59°06' E 010°14'0 0.0
2019-Apr-25 01:29N 59°06' E 010°14'0 0.0
2019-Apr-25 01:00N 59°06' E 010°14'0 0.0
2019-Apr-25 00:30N 59°06' E 010°14'0 0.0
2019-Apr-24 23:57N 59°06' E 010°14'0 0.0
2019-Apr-24 23:28N 59°06' E 010°14'0 0.0
2019-Apr-24 22:58N 59°06' E 010°14'0 0.0
2019-Apr-24 22:28N 59°06' E 010°14'0 0.0
2019-Apr-24 21:59N 59°06' E 010°14'0 0.0
2019-Apr-24 21:29N 59°06' E 010°14'0 0.0
2019-Apr-24 20:59N 59°06' E 010°14'0 0.0
2019-Apr-24 20:30N 59°06' E 010°14'0 0.0
2019-Apr-24 20:00N 59°06' E 010°14'0 0.0
2019-Apr-24 19:30N 59°06' E 010°14'1 2.9
2019-Apr-24 19:01N 59°08' E 010°14'3 6.5
2019-Apr-24 18:30N 59°04' E 010°15'713.2
2019-Apr-24 18:00N 59°01' E 010°26'815.3
2019-Apr-24 17:30N 59°01' E 010°40'815.4
2019-Apr-24 17:00N 59°00' E 010°55'815.5
2019-Apr-24 16:30N 58°56' E 011°08'1 2.5
2019-Apr-24 16:00N 58°56' E 011°10'4 8.0
2019-Apr-24 15:30N 58°58' E 011°03'714.5
2019-Apr-24 15:00N 59°01' E 010°51'714.7
2019-Apr-24 14:31N 59°01' E 010°37'815.1
2019-Apr-24 14:00N 59°01' E 010°22'712.9
2019-Apr-24 13:30N 59°06' E 010°14'2 3.2
2019-Apr-24 13:01N 59°08' E 010°14'0 0.0
2019-Apr-24 12:31N 59°08' E 010°14'612.0
2019-Apr-24 12:01N 59°02' E 010°16'815.4
2019-Apr-24 11:31N 59°00' E 010°31'713.5
2019-Apr-24 11:00N 59°02' E 010°44'713.9
2019-Apr-24 10:31N 59°00' E 010°57'714.5
2019-Apr-24 10:00N 58°56' E 011°08'1 1.7
2019-Apr-24 09:31N 58°56' E 011°10'0 0.6
2019-Apr-24 09:00N 58°56' E 011°10'714.6
2019-Apr-24 08:30N 58°60' E 010°58'714.9
2019-Apr-24 08:00N 59°01' E 010°44'713.8
2019-Apr-24 07:31N 59°00' E 010°30'714.7
2019-Apr-24 07:00N 59°02' E 010°16'611.9
2019-Apr-24 06:31N 59°07' E 010°14'0 0.3
2019-Apr-24 06:01N 59°08' E 010°14'1 2.9
2019-Apr-24 05:30N 59°06' E 010°14'0 0.0
2019-Apr-24 05:00N 59°06' E 010°14'0 0.0
2019-Apr-24 04:30N 59°06' E 010°14'0 0.0
2019-Apr-24 04:00N 59°06' E 010°14'0 0.0
2019-Apr-24 03:31N 59°06' E 010°14'0 0.0
2019-Apr-24 02:58N 59°06' E 010°14'0 0.0
2019-Apr-24 02:28N 59°06' E 010°14'0 0.0
2019-Apr-24 01:59N 59°06' E 010°14'0 0.0
2019-Apr-24 01:29N 59°06' E 010°14'0 0.0
2019-Apr-24 00:59N 59°06' E 010°14'0 0.0
2019-Apr-24 00:27N 59°06' E 010°14'0 0.0
2019-Apr-24 00:00N 59°06' E 010°14'0 0.0
2019-Apr-23 23:30N 59°06' E 010°14'0 0.0
2019-Apr-23 22:58N 59°06' E 010°14'0 0.0
2019-Apr-23 22:28N 59°06' E 010°14'0 0.0
2019-Apr-23 21:58N 59°06' E 010°14'0 0.0
2019-Apr-23 21:29N 59°06' E 010°14'0 0.0
2019-Apr-23 20:56N 59°06' E 010°14'0 0.0
2019-Apr-23 20:29N 59°06' E 010°14'0 0.0
2019-Apr-23 19:57N 59°06' E 010°14'0 0.3
2019-Apr-23 19:31N 59°06' E 010°14'1 2.6
2019-Apr-23 19:01N 59°08' E 010°14'4 7.2
2019-Apr-23 18:31N 59°04' E 010°15'612.9
2019-Apr-23 18:01N 59°01' E 010°26'815.4
2019-Apr-23 17:31N 59°01' E 010°41'815.6
2019-Apr-23 17:00N 59°00' E 010°56'815.4
2019-Apr-23 16:30N 58°56' E 011°09'1 1.8
2019-Apr-23 16:01N 58°56' E 011°10'4 8.4
2019-Apr-23 15:30N 58°58' E 011°03'714.9
2019-Apr-23 15:01N 59°01' E 010°50'815.1
2019-Apr-23 14:31N 59°01' E 010°36'815.4
2019-Apr-23 14:01N 59°01' E 010°21'612.9
2019-Apr-23 13:31N 59°06' E 010°14'1 2.5
2019-Apr-23 13:00N 59°08' E 010°14'0 0.4
2019-Apr-23 12:31N 59°07' E 010°14'612.1
2019-Apr-23 12:01N 59°02' E 010°17'815.2
2019-Apr-23 11:31N 59°01' E 010°32'815.0
2019-Apr-23 11:01N 59°02' E 010°46'714.6
2019-Apr-23 10:31N 58°59' E 010°59'712.9
2019-Apr-23 10:00N 58°56' E 011°10'0 0.0
2019-Apr-23 09:31N 58°56' E 011°10'0 0.3
2019-Apr-23 09:00N 58°56' E 011°10'713.5
2019-Apr-23 08:30N 58°60' E 010°59'714.7
2019-Apr-23 08:01N 59°01' E 010°45'714.8
2019-Apr-23 07:31N 59°00' E 010°31'714.3
2019-Apr-23 07:01N 59°01' E 010°17'612.4
2019-Apr-23 06:30N 59°07' E 010°14'0 0.4
2019-Apr-23 06:01N 59°08' E 010°14'1 2.9
2019-Apr-23 05:31N 59°06' E 010°14'0 0.0
2019-Apr-23 04:56N 59°06' E 010°14'0 0.0
2019-Apr-23 04:29N 59°06' E 010°14'0 0.0
2019-Apr-23 04:00N 59°06' E 010°14'0 0.0
2019-Apr-23 03:30N 59°06' E 010°14'0 0.0
2019-Apr-23 03:00N 59°06' E 010°14'0 0.0
2019-Apr-23 02:28N 59°06' E 010°14'0 0.0
2019-Apr-23 01:58N 59°06' E 010°14'0 0.0
2019-Apr-23 01:29N 59°06' E 010°14'0 0.0
2019-Apr-23 00:59N 59°06' E 010°14'0 0.0
2019-Apr-23 00:29N 59°06' E 010°14'0 0.0
2019-Apr-23 00:00N 59°06' E 010°14'0 0.0
2019-Apr-22 23:30N 59°06' E 010°14'0 0.0
2019-Apr-22 23:00N 59°06' E 010°14'0 0.0
2019-Apr-22 22:31N 59°06' E 010°14'0 0.0
2019-Apr-22 21:58N 59°06' E 010°14'0 0.0
2019-Apr-22 21:28N 59°06' E 010°14'0 0.0
2019-Apr-22 20:59N 59°06' E 010°14'0 0.0
2019-Apr-22 20:29N 59°06' E 010°14'0 0.0
2019-Apr-22 19:59N 59°06' E 010°14'0 0.2
2019-Apr-22 19:30N 59°06' E 010°14'1 2.4
2019-Apr-22 18:58N 59°08' E 010°14'4 9.4
2019-Apr-22 18:31N 59°03' E 010°15'713.9
2019-Apr-22 18:01N 59°01' E 010°28'815.5
2019-Apr-22 17:30N 59°01' E 010°43'815.5
2019-Apr-22 17:00N 58°60' E 010°57'714.8
2019-Apr-22 16:30N 58°56' E 011°09'0 0.8
2019-Apr-22 16:00N 58°56' E 011°10'4 8.0
2019-Apr-22 15:30N 58°57' E 011°03'714.9
2019-Apr-22 15:00N 59°01' E 010°51'815.2
2019-Apr-22 14:30N 59°01' E 010°36'815.2
2019-Apr-22 14:01N 59°01' E 010°21'713.2
2019-Apr-22 13:30N 59°06' E 010°14'1 2.5
2019-Apr-22 13:00N 59°08' E 010°14'0 0.2
2019-Apr-22 12:31N 59°07' E 010°14'611.6
2019-Apr-22 12:01N 59°02' E 010°16'714.2
2019-Apr-22 11:30N 59°01' E 010°29'714.0
2019-Apr-22 11:00N 59°02' E 010°43'713.8
2019-Apr-22 10:30N 59°00' E 010°56'714.5
2019-Apr-22 10:00N 58°56' E 011°08'1 2.6
2019-Apr-22 09:30N 58°56' E 011°10'0 0.2
2019-Apr-22 09:00N 58°56' E 011°10'713.2
2019-Apr-22 08:30N 58°59' E 010°59'714.7
2019-Apr-22 08:00N 59°02' E 010°46'714.9
2019-Apr-22 07:30N 59°00' E 010°31'715.0
2019-Apr-22 07:01N 59°01' E 010°17'612.5
2019-Apr-22 06:31N 59°07' E 010°14'0 0.4
2019-Apr-22 06:01N 59°08' E 010°14'1 2.4
2019-Apr-22 05:31N 59°06' E 010°14'0 0.4
2019-Apr-22 04:58N 59°06' E 010°14'0 0.0
2019-Apr-22 04:28N 59°06' E 010°14'0 0.0
2019-Apr-22 03:59N 59°06' E 010°14'0 0.0
2019-Apr-22 03:29N 59°06' E 010°14'0 0.0
2019-Apr-22 02:59N 59°06' E 010°14'0 0.0
2019-Apr-22 02:30N 59°06' E 010°14'0 0.0
2019-Apr-22 02:00N 59°06' E 010°14'0 0.0
2019-Apr-22 01:30N 59°06' E 010°14'0 0.0
2019-Apr-22 00:58N 59°06' E 010°14'0 0.0
2019-Apr-22 00:28N 59°06' E 010°14'0 0.0
2019-Apr-21 23:58N 59°06' E 010°14'0 0.0
2019-Apr-21 23:29N 59°06' E 010°14'0 0.0
2019-Apr-21 22:59N 59°06' E 010°14'0 0.0
2019-Apr-21 22:29N 59°06' E 010°14'0 0.0
2019-Apr-21 22:00N 59°06' E 010°14'0 0.0
2019-Apr-21 21:30N 59°06' E 010°14'0 0.0
2019-Apr-21 21:00N 59°06' E 010°14'0 0.0
2019-Apr-21 20:28N 59°06' E 010°14'0 0.0
2019-Apr-21 19:58N 59°06' E 010°14'1 2.7
2019-Apr-21 19:28N 59°08' E 010°14'0 0.1
2019-Apr-21 19:00N 59°08' E 010°14'611.2
2019-Apr-21 18:30N 59°02' E 010°16'816.4
2019-Apr-21 18:01N 59°01' E 010°31'816.6
2019-Apr-21 17:30N 59°02' E 010°47'816.5
2019-Apr-21 17:01N 58°58' E 011°02'5 9.5
2019-Apr-21 16:30N 58°56' E 011°10'0 0.0
2019-Apr-21 16:01N 58°56' E 011°10'4 7.4
2019-Apr-21 15:30N 58°57' E 011°03'815.4
2019-Apr-21 15:01N 59°01' E 010°51'815.8
2019-Apr-21 14:31N 59°01' E 010°35'815.4
2019-Apr-21 14:00N 59°01' E 010°20'713.1
2019-Apr-21 13:30N 59°06' E 010°14'1 2.3
2019-Apr-21 13:01N 59°08' E 010°14'0 0.1
2019-Apr-21 12:31N 59°08' E 010°14'611.8
2019-Apr-21 12:00N 59°02' E 010°16'714.4
2019-Apr-21 11:31N 59°01' E 010°30'714.2
2019-Apr-21 11:01N 59°02' E 010°43'714.5
2019-Apr-21 10:30N 58°60' E 010°57'714.4
2019-Apr-21 10:00N 58°56' E 011°09'1 1.7
2019-Apr-21 09:31N 58°56' E 011°10'0 0.3
2019-Apr-21 09:00N 58°56' E 011°10'612.9
2019-Apr-21 08:31N 58°59' E 010°59'714.6
2019-Apr-21 08:01N 59°02' E 010°46'815.0
2019-Apr-21 07:30N 59°00' E 010°31'714.9
2019-Apr-21 07:00N 59°01' E 010°17'612.3
2019-Apr-21 06:31N 59°07' E 010°14'0 0.5
2019-Apr-21 06:01N 59°08' E 010°14'1 1.9
2019-Apr-21 05:30N 59°07' E 010°14'0 0.9
2019-Apr-21 04:59N 59°06' E 010°14'0 0.0
2019-Apr-21 04:30N 59°06' E 010°14'0 0.0
2019-Apr-21 04:00N 59°06' E 010°14'0 0.0
2019-Apr-21 03:30N 59°06' E 010°14'0 0.0
2019-Apr-21 02:58N 59°06' E 010°14'0 0.0
2019-Apr-21 02:28N 59°06' E 010°14'0 0.0
2019-Apr-21 01:58N 59°06' E 010°14'0 0.0
2019-Apr-21 01:29N 59°06' E 010°14'0 0.0
2019-Apr-21 00:59N 59°06' E 010°14'0 0.0
2019-Apr-21 00:29N 59°06' E 010°14'0 0.0
2019-Apr-21 00:00N 59°06' E 010°14'0 0.0
2019-Apr-20 23:30N 59°06' E 010°14'0 0.0
2019-Apr-20 23:00N 59°06' E 010°14'0 0.0
2019-Apr-20 22:28N 59°06' E 010°14'0 0.0
2019-Apr-20 21:58N 59°06' E 010°14'0 0.0
2019-Apr-20 21:28N 59°06' E 010°14'0 0.0
2019-Apr-20 20:59N 59°06' E 010°14'0 0.0
2019-Apr-20 20:29N 59°06' E 010°14'0 0.0
2019-Apr-20 19:59N 59°06' E 010°14'0 0.3
2019-Apr-20 19:30N 59°06' E 010°14'1 2.4
2019-Apr-20 18:58N 59°08' E 010°14'4 9.2
2019-Apr-20 18:31N 59°03' E 010°15'714.2
2019-Apr-20 18:01N 59°01' E 010°28'815.9
2019-Apr-20 17:31N 59°01' E 010°43'815.8
2019-Apr-20 17:01N 58°60' E 010°58'714.0
2019-Apr-20 16:30N 58°56' E 011°10'0 0.2
2019-Apr-20 16:00N 58°56' E 011°10'5 9.3
2019-Apr-20 15:30N 58°58' E 011°02'815.3
2019-Apr-20 15:00N 59°01' E 010°49'815.4
2019-Apr-20 14:31N 59°01' E 010°34'815.5
2019-Apr-20 14:01N 59°01' E 010°19'612.8
2019-Apr-20 13:30N 59°07' E 010°14'1 1.2
2019-Apr-20 13:01N 59°08' E 010°14'0 0.1
2019-Apr-20 12:30N 59°08' E 010°14'611.6
2019-Apr-20 12:01N 59°02' E 010°16'714.4
2019-Apr-20 11:30N 59°01' E 010°30'714.5
2019-Apr-20 11:01N 59°02' E 010°44'714.5
2019-Apr-20 10:30N 58°60' E 010°57'714.7
2019-Apr-20 10:00N 58°56' E 011°09'1 1.1
2019-Apr-20 09:30N 58°56' E 011°10'0 0.0
2019-Apr-20 09:01N 58°56' E 011°10'611.9
2019-Apr-20 08:30N 58°59' E 011°00'714.8
2019-Apr-20 08:00N 59°02' E 010°47'815.0
2019-Apr-20 07:30N 59°00' E 010°32'815.1
2019-Apr-20 07:00N 59°01' E 010°18'612.6
2019-Apr-20 06:31N 59°07' E 010°14'0 1.0
2019-Apr-20 06:00N 59°08' E 010°14'0 0.5
2019-Apr-20 05:30N 59°07' E 010°14'1 2.1
2019-Apr-20 04:58N 59°06' E 010°14'0 0.0
2019-Apr-20 04:28N 59°06' E 010°14'0 0.0
2019-Apr-20 03:58N 59°06' E 010°14'0 0.0
2019-Apr-20 03:29N 59°06' E 010°14'0 0.0
2019-Apr-20 02:59N 59°06' E 010°14'0 0.0
2019-Apr-20 02:29N 59°06' E 010°14'0 0.0
2019-Apr-20 02:00N 59°06' E 010°14'0 0.0
2019-Apr-20 01:30N 59°06' E 010°14'0 0.0
2019-Apr-20 01:00N 59°06' E 010°14'0 0.0
2019-Apr-20 00:28N 59°06' E 010°14'0 0.0
2019-Apr-19 23:58N 59°06' E 010°14'0 0.0
2019-Apr-19 23:28N 59°06' E 010°14'0 0.0
2019-Apr-19 22:59N 59°06' E 010°14'0 0.0
2019-Apr-19 22:29N 59°06' E 010°14'0 0.0
2019-Apr-19 21:59N 59°06' E 010°14'0 0.0
2019-Apr-19 21:30N 59°06' E 010°14'0 0.0
2019-Apr-19 21:00N 59°06' E 010°14'0 0.0
2019-Apr-19 20:30N 59°06' E 010°14'0 0.0
2019-Apr-19 19:58N 59°06' E 010°14'1 2.8
2019-Apr-19 19:28N 59°08' E 010°14'0 0.0
2019-Apr-19 19:01N 59°08' E 010°14'612.1
2019-Apr-19 18:31N 59°02' E 010°16'816.9
2019-Apr-19 18:01N 59°01' E 010°33'816.6
2019-Apr-19 17:30N 59°01' E 010°49'816.3
2019-Apr-19 17:00N 58°58' E 011°03'4 8.4
2019-Apr-19 16:30N 58°56' E 011°10'0 0.0
2019-Apr-19 16:00N 58°56' E 011°10'3 6.9
2019-Apr-19 15:31N 58°57' E 011°04'816.0
2019-Apr-19 15:00N 59°01' E 010°51'816.4
2019-Apr-19 14:30N 59°01' E 010°35'816.3
2019-Apr-19 14:01N 59°01' E 010°19'713.0
2019-Apr-19 13:30N 59°07' E 010°14'0 1.0
2019-Apr-19 13:01N 59°08' E 010°14'0 0.2
2019-Apr-19 12:30N 59°07' E 010°14'612.1
2019-Apr-19 12:01N 59°02' E 010°17'815.8
2019-Apr-19 11:30N 59°00' E 010°32'815.5
2019-Apr-19 11:00N 59°02' E 010°47'815.2
2019-Apr-19 10:31N 58°59' E 011°00'611.6
2019-Apr-19 10:00N 58°56' E 011°10'0 0.0
2019-Apr-19 09:31N 58°56' E 011°10'0 0.2
2019-Apr-19 09:00N 58°56' E 011°10'713.2
2019-Apr-19 08:30N 58°59' E 010°59'714.7
2019-Apr-19 08:00N 59°02' E 010°45'714.9
2019-Apr-19 07:30N 59°00' E 010°31'714.5
2019-Apr-19 07:01N 59°01' E 010°17'612.6
2019-Apr-19 06:31N 59°07' E 010°14'0 0.5
2019-Apr-19 06:01N 59°08' E 010°14'0 0.6
2019-Apr-19 05:30N 59°07' E 010°14'1 2.3
2019-Apr-19 05:00N 59°06' E 010°14'0 0.0
2019-Apr-19 04:28N 59°06' E 010°14'0 0.0
2019-Apr-19 03:58N 59°06' E 010°14'0 0.0
2019-Apr-19 03:28N 59°06' E 010°14'0 0.0
2019-Apr-19 02:59N 59°06' E 010°14'0 0.0
2019-Apr-19 02:29N 59°06' E 010°14'0 0.0
2019-Apr-19 01:59N 59°06' E 010°14'0 0.0
2019-Apr-19 01:30N 59°06' E 010°14'0 0.0
2019-Apr-19 01:00N 59°06' E 010°14'0 0.0
2019-Apr-19 00:30N 59°06' E 010°14'0 0.0
2019-Apr-18 23:58N 59°06' E 010°14'0 0.0
2019-Apr-18 23:25N 59°06' E 010°14'0 0.0
2019-Apr-18 22:58N 59°06' E 010°14'0 0.0
2019-Apr-18 22:23N 59°06' E 010°14'0 0.0
2019-Apr-18 21:59N 59°06' E 010°14'0 0.0
2019-Apr-18 21:29N 59°06' E 010°14'0 0.0
2019-Apr-18 20:57N 59°06' E 010°14'0 0.0
2019-Apr-18 20:30N 59°06' E 010°14'0 0.0
2019-Apr-18 20:00N 59°06' E 010°14'1 2.8
2019-Apr-18 19:29N 59°08' E 010°14'1 1.0
2019-Apr-18 18:59N 59°07' E 010°14'612.6
2019-Apr-18 18:31N 59°01' E 010°18'816.8
2019-Apr-18 18:00N 59°01' E 010°35'816.7
2019-Apr-18 17:31N 59°01' E 010°51'816.5
2019-Apr-18 17:01N 58°57' E 011°05'3 6.1
2019-Apr-18 16:30N 58°56' E 011°10'0 0.0
2019-Apr-18 16:00N 58°56' E 011°10'4 8.2
2019-Apr-18 15:30N 58°58' E 011°03'815.5
2019-Apr-18 15:00N 59°01' E 010°50'815.8
2019-Apr-18 14:30N 59°01' E 010°35'815.5
2019-Apr-18 14:00N 59°01' E 010°20'613.0
2019-Apr-18 13:31N 59°07' E 010°14'1 1.8
2019-Apr-18 13:01N 59°08' E 010°14'0 0.0
2019-Apr-18 12:31N 59°08' E 010°14'611.0
2019-Apr-18 12:01N 59°02' E 010°16'815.5
2019-Apr-18 11:31N 59°00' E 010°30'815.4
2019-Apr-18 11:00N 59°02' E 010°45'815.2
2019-Apr-18 10:31N 58°60' E 010°59'713.4
2019-Apr-18 10:00N 58°56' E 011°10'0 0.1
2019-Apr-18 09:31N 58°56' E 011°10'0 0.7
2019-Apr-18 09:00N 58°56' E 011°09'714.9
2019-Apr-18 08:31N 58°60' E 010°57'816.1
2019-Apr-18 08:00N 59°01' E 010°42'815.9
2019-Apr-18 07:31N 59°00' E 010°27'714.2
2019-Apr-18 07:00N 59°04' E 010°15'4 7.2
2019-Apr-18 06:31N 59°08' E 010°14'0 0.0
2019-Apr-18 06:01N 59°08' E 010°14'1 1.4
2019-Apr-18 05:31N 59°07' E 010°14'1 1.4
2019-Apr-18 04:59N 59°06' E 010°14'0 0.0
2019-Apr-18 04:29N 59°06' E 010°14'0 0.0
2019-Apr-18 04:00N 59°06' E 010°14'0 0.0
2019-Apr-18 03:30N 59°06' E 010°14'0 0.0
2019-Apr-18 03:00N 59°06' E 010°14'0 0.0
2019-Apr-18 02:28N 59°06' E 010°14'0 0.0
2019-Apr-18 01:58N 59°06' E 010°14'0 0.0
2019-Apr-18 01:28N 59°06' E 010°14'0 0.0
2019-Apr-18 00:59N 59°06' E 010°14'0 0.0
2019-Apr-18 00:29N 59°06' E 010°14'0 0.0
2019-Apr-17 23:59N 59°06' E 010°14'0 0.0
2019-Apr-17 23:30N 59°06' E 010°14'0 0.0
2019-Apr-17 23:00N 59°06' E 010°14'0 0.0
2019-Apr-17 22:30N 59°06' E 010°14'0 0.0
2019-Apr-17 21:58N 59°06' E 010°14'0 0.0
2019-Apr-17 21:28N 59°06' E 010°14'0 0.0
2019-Apr-17 20:58N 59°06' E 010°14'0 0.0
2019-Apr-17 20:29N 59°06' E 010°14'0 0.0
2019-Apr-17 19:59N 59°06' E 010°14'1 2.9
2019-Apr-17 19:29N 59°08' E 010°14'0 0.3
2019-Apr-17 19:00N 59°07' E 010°14'612.4
2019-Apr-17 18:31N 59°02' E 010°17'816.8
2019-Apr-17 18:00N 59°01' E 010°33'816.8
2019-Apr-17 17:31N 59°01' E 010°50'816.2
2019-Apr-17 17:00N 58°57' E 011°03'4 7.6
2019-Apr-17 16:30N 58°56' E 011°10'0 0.0
2019-Apr-17 16:00N 58°56' E 011°10'510.4
2019-Apr-17 15:31N 58°58' E 011°01'816.6
2019-Apr-17 15:01N 59°02' E 010°47'816.7
2019-Apr-17 14:30N 59°00' E 010°31'816.1
2019-Apr-17 14:00N 59°02' E 010°15'510.3
2019-Apr-17 13:30N 59°08' E 010°14'0 0.0
2019-Apr-17 13:01N 59°08' E 010°14'0 0.0
2019-Apr-17 12:30N 59°08' E 010°14'5 9.7
2019-Apr-17 12:00N 59°03' E 010°15'714.1
2019-Apr-17 11:31N 59°01' E 010°28'815.7
2019-Apr-17 11:01N 59°01' E 010°43'815.0
2019-Apr-17 10:30N 59°00' E 010°58'714.4
2019-Apr-17 10:00N 58°56' E 011°09'0 0.9
2019-Apr-17 09:30N 58°56' E 011°10'0 0.6
2019-Apr-17 09:00N 58°56' E 011°10'815.3
2019-Apr-17 08:31N 59°00' E 010°57'816.5
2019-Apr-17 08:01N 59°01' E 010°41'816.7
2019-Apr-17 07:31N 59°01' E 010°25'714.2
2019-Apr-17 07:00N 59°05' E 010°14'2 4.5
2019-Apr-17 06:30N 59°08' E 010°14'0 0.0
2019-Apr-17 06:00N 59°08' E 010°14'1 2.1
2019-Apr-17 05:31N 59°07' E 010°14'0 0.7
2019-Apr-17 05:01N 59°06' E 010°14'0 0.0
2019-Apr-17 04:29N 59°06' E 010°14'0 0.0
2019-Apr-17 03:59N 59°06' E 010°14'0 0.0
2019-Apr-17 03:29N 59°06' E 010°14'0 0.0
2019-Apr-17 03:00N 59°06' E 010°14'0 0.0
2019-Apr-17 02:30N 59°06' E 010°14'0 0.0
2019-Apr-17 02:00N 59°06' E 010°14'0 0.0
2019-Apr-17 01:28N 59°06' E 010°14'0 0.0
2019-Apr-17 00:58N 59°06' E 010°14'0 0.0
2019-Apr-17 00:28N 59°06' E 010°14'0 0.0
2019-Apr-16 23:59N 59°06' E 010°14'0 0.0
2019-Apr-16 23:29N 59°06' E 010°14'0 0.0
2019-Apr-16 22:59N 59°06' E 010°14'0 0.0
2019-Apr-16 22:30N 59°06' E 010°14'0 0.0
2019-Apr-16 22:00N 59°06' E 010°14'0 0.0
2019-Apr-16 21:30N 59°06' E 010°14'0 0.0
2019-Apr-16 20:58N 59°06' E 010°14'0 0.0
2019-Apr-16 20:28N 59°06' E 010°14'0 0.0
2019-Apr-16 20:00N 59°06' E 010°14'1 2.9
2019-Apr-16 19:31N 59°08' E 010°14'1 2.5
2019-Apr-16 19:01N 59°06' E 010°14'713.2
2019-Apr-16 18:31N 59°01' E 010°22'917.0
2019-Apr-16 18:01N 59°01' E 010°38'816.8
2019-Apr-16 17:31N 59°00' E 010°55'816.4
2019-Apr-16 17:00N 58°56' E 011°08'1 1.9
2019-Apr-16 16:31N 58°56' E 011°10'0 0.0
2019-Apr-16 16:01N 58°56' E 011°10'611.0
2019-Apr-16 15:30N 58°59' E 011°01'816.0
2019-Apr-16 15:00N 59°02' E 010°47'816.4
2019-Apr-16 14:31N 59°01' E 010°31'816.2
2019-Apr-16 14:00N 59°02' E 010°16'611.6
2019-Apr-16 13:31N 59°08' E 010°14'0 0.0
2019-Apr-16 13:01N 59°08' E 010°14'0 0.0
2019-Apr-16 12:31N 59°08' E 010°14'4 8.0
2019-Apr-16 12:01N 59°04' E 010°15'713.7
2019-Apr-16 11:31N 59°01' E 010°27'815.4
2019-Apr-16 11:01N 59°01' E 010°42'815.5
2019-Apr-16 10:30N 59°00' E 010°57'815.2
2019-Apr-16 10:00N 58°56' E 011°09'1 1.2
2019-Apr-16 09:31N 58°56' E 011°10'0 0.6
2019-Apr-16 09:00N 58°56' E 011°10'715.0
2019-Apr-16 08:30N 58°60' E 010°57'816.0
2019-Apr-16 08:01N 59°01' E 010°42'816.3
2019-Apr-16 07:31N 59°01' E 010°26'714.1
2019-Apr-16 07:00N 59°05' E 010°15'3 6.3
2019-Apr-16 06:31N 59°08' E 010°14'0 0.0
2019-Apr-16 06:00N 59°08' E 010°14'1 1.4
2019-Apr-16 05:30N 59°07' E 010°14'1 1.5
2019-Apr-16 05:01N 59°06' E 010°14'0 0.0
2019-Apr-16 04:29N 59°06' E 010°14'  
Track history (hours):
 
Tides and Currents Weather Stations Pressure Air Temp Water Temp Dewpoint Dewpoint Depression Visibility Wind Speed Wind Dir Waves Ship Positions

DucheSS Of Scandinavia

Operator: DFDS A/S

Last reported at 2019-Apr-26 04:00 UTC. Time now 2019-Apr-26 04:27 UTC.
Position N 59°06' E 010°14'.

Length 134 m; draft 5.4 m.

Type: Passenger vessel. MMSI: 219002929.

Date/timePositionNaut miles runAvg speedWind from/ knotsBaromVisibWave heightAir tempDewpointWater temp
2019-Apr-26 04:00N 59°06' E 010°14'0 0.0
2019-Apr-26 03:30N 59°06' E 010°14'0 0.0
2019-Apr-26 03:00N 59°06' E 010°14'0 0.0
2019-Apr-26 02:28N 59°06' E 010°14'0 0.0
2019-Apr-26 01:58N 59°06' E 010°14'0 0.0
2019-Apr-26 01:28N 59°06' E 010°14'0 0.0
2019-Apr-26 00:59N 59°06' E 010°14'0 0.0
2019-Apr-26 00:29N 59°06' E 010°14'0 0.0
2019-Apr-25 23:59N 59°06' E 010°14'0 0.0
2019-Apr-25 23:30N 59°06' E 010°14'0 0.0
2019-Apr-25 23:00N 59°06' E 010°14'0 0.0
2019-Apr-25 22:30N 59°06' E 010°14'0 0.0
2019-Apr-25 21:55N 59°06' E 010°14'0 0.0
2019-Apr-25 21:28N 59°06' E 010°14'0 0.0
2019-Apr-25 20:58N 59°06' E 010°14'0 0.0
2019-Apr-25 20:29N 59°06' E 010°14'0 0.0
2019-Apr-25 19:59N 59°06' E 010°14'0 0.0
2019-Apr-25 19:29N 59°06' E 010°14'1 3.0
2019-Apr-25 19:01N 59°08' E 010°14'3 6.3
2019-Apr-25 18:31N 59°04' E 010°15'713.4
2019-Apr-25 18:00N 59°01' E 010°26'815.8
2019-Apr-25 17:30N 59°01' E 010°41'815.5
2019-Apr-25 17:01N 59°00' E 010°56'815.3
2019-Apr-25 16:30N 58°56' E 011°08'1 2.1
2019-Apr-25 16:01N 58°56' E 011°10'4 8.1
2019-Apr-25 15:30N 58°58' E 011°03'714.7
2019-Apr-25 15:00N 59°01' E 010°50'815.3
2019-Apr-25 14:31N 59°01' E 010°36'815.2
2019-Apr-25 14:00N 59°01' E 010°21'612.7
2019-Apr-25 13:30N 59°06' E 010°14'1 2.8
2019-Apr-25 13:01N 59°08' E 010°14'0 0.5
2019-Apr-25 12:30N 59°07' E 010°14'611.5
2019-Apr-25 12:00N 59°02' E 010°16'713.9
2019-Apr-25 11:30N 59°01' E 010°29'713.8
2019-Apr-25 11:01N 59°01' E 010°43'713.6
2019-Apr-25 10:31N 59°00' E 010°56'815.3
2019-Apr-25 10:00N 58°56' E 011°08'1 2.1
2019-Apr-25 09:30N 58°56' E 011°10'0 0.5
2019-Apr-25 09:00N 58°56' E 011°10'713.4
2019-Apr-25 08:30N 58°60' E 010°59'714.4
2019-Apr-25 08:00N 59°02' E 010°46'714.8
2019-Apr-25 07:31N 59°01' E 010°31'714.6
2019-Apr-25 07:01N 59°01' E 010°17'612.5
2019-Apr-25 06:30N 59°07' E 010°14'0 0.5
2019-Apr-25 06:01N 59°08' E 010°14'1 2.9
2019-Apr-25 05:30N 59°06' E 010°14'0 0.0
2019-Apr-25 05:00N 59°06' E 010°14'0 0.0
2019-Apr-25 04:30N 59°06' E 010°14'0 0.0
2019-Apr-25 03:58N 59°06' E 010°14'0 0.0
2019-Apr-25 03:28N 59°06' E 010°14'0 0.0
2019-Apr-25 02:58N 59°06' E 010°14'0 0.0
2019-Apr-25 02:29N 59°06' E 010°14'0 0.0
2019-Apr-25 01:59N 59°06' E 010°14'0 0.0
2019-Apr-25 01:29N 59°06' E 010°14'0 0.0
2019-Apr-25 01:00N 59°06' E 010°14'0 0.0
2019-Apr-25 00:30N 59°06' E 010°14'0 0.0
2019-Apr-24 23:57N 59°06' E 010°14'0 0.0
2019-Apr-24 23:28N 59°06' E 010°14'0 0.0
2019-Apr-24 22:58N 59°06' E 010°14'0 0.0
2019-Apr-24 22:28N 59°06' E 010°14'0 0.0
2019-Apr-24 21:59N 59°06' E 010°14'0 0.0
2019-Apr-24 21:29N 59°06' E 010°14'0 0.0
2019-Apr-24 20:59N 59°06' E 010°14'0 0.0
2019-Apr-24 20:30N 59°06' E 010°14'0 0.0
2019-Apr-24 20:00N 59°06' E 010°14'0 0.0
2019-Apr-24 19:30N 59°06' E 010°14'1 2.9
2019-Apr-24 19:01N 59°08' E 010°14'3 6.5
2019-Apr-24 18:30N 59°04' E 010°15'713.2
2019-Apr-24 18:00N 59°01' E 010°26'815.3
2019-Apr-24 17:30N 59°01' E 010°40'815.4
2019-Apr-24 17:00N 59°00' E 010°55'815.5
2019-Apr-24 16:30N 58°56' E 011°08'1 2.5
2019-Apr-24 16:00N 58°56' E 011°10'4 8.0
2019-Apr-24 15:30N 58°58' E 011°03'714.5
2019-Apr-24 15:00N 59°01' E 010°51'714.7
2019-Apr-24 14:31N 59°01' E 010°37'815.1
2019-Apr-24 14:00N 59°01' E 010°22'712.9
2019-Apr-24 13:30N 59°06' E 010°14'2 3.2
2019-Apr-24 13:01N 59°08' E 010°14'0 0.0
2019-Apr-24 12:31N 59°08' E 010°14'612.0
2019-Apr-24 12:01N 59°02' E 010°16'815.4
2019-Apr-24 11:31N 59°00' E 010°31'713.5
2019-Apr-24 11:00N 59°02' E 010°44'713.9
2019-Apr-24 10:31N 59°00' E 010°57'714.5
2019-Apr-24 10:00N 58°56' E 011°08'1 1.7
2019-Apr-24 09:31N 58°56' E 011°10'0 0.6
2019-Apr-24 09:00N 58°56' E 011°10'714.6
2019-Apr-24 08:30N 58°60' E 010°58'714.9
2019-Apr-24 08:00N 59°01' E 010°44'713.8
2019-Apr-24 07:31N 59°00' E 010°30'714.7
2019-Apr-24 07:00N 59°02' E 010°16'611.9
2019-Apr-24 06:31N 59°07' E 010°14'0 0.3
2019-Apr-24 06:01N 59°08' E 010°14'1 2.9
2019-Apr-24 05:30N 59°06' E 010°14'0 0.0
2019-Apr-24 05:00N 59°06' E 010°14'0 0.0
2019-Apr-24 04:30N 59°06' E 010°14'0 0.0
2019-Apr-24 04:00N 59°06' E 010°14'0 0.0
2019-Apr-24 03:31N 59°06' E 010°14'0 0.0
2019-Apr-24 02:58N 59°06' E 010°14'0 0.0
2019-Apr-24 02:28N 59°06' E 010°14'0 0.0
2019-Apr-24 01:59N 59°06' E 010°14'0 0.0
2019-Apr-24 01:29N 59°06' E 010°14'0 0.0
2019-Apr-24 00:59N 59°06' E 010°14'0 0.0
2019-Apr-24 00:27N 59°06' E 010°14'0 0.0
2019-Apr-24 00:00N 59°06' E 010°14'0 0.0
2019-Apr-23 23:30N 59°06' E 010°14'0 0.0
2019-Apr-23 22:58N 59°06' E 010°14'0 0.0
2019-Apr-23 22:28N 59°06' E 010°14'0 0.0
2019-Apr-23 21:58N 59°06' E 010°14'0 0.0
2019-Apr-23 21:29N 59°06' E 010°14'0 0.0
2019-Apr-23 20:56N 59°06' E 010°14'0 0.0
2019-Apr-23 20:29N 59°06' E 010°14'0 0.0
2019-Apr-23 19:57N 59°06' E 010°14'0 0.3
2019-Apr-23 19:31N 59°06' E 010°14'1 2.6
2019-Apr-23 19:01N 59°08' E 010°14'4 7.2
2019-Apr-23 18:31N 59°04' E 010°15'612.9
2019-Apr-23 18:01N 59°01' E 010°26'815.4
2019-Apr-23 17:31N 59°01' E 010°41'815.6
2019-Apr-23 17:00N 59°00' E 010°56'815.4
2019-Apr-23 16:30N 58°56' E 011°09'1 1.8
2019-Apr-23 16:01N 58°56' E 011°10'4 8.4
2019-Apr-23 15:30N 58°58' E 011°03'714.9
2019-Apr-23 15:01N 59°01' E 010°50'815.1
2019-Apr-23 14:31N 59°01' E 010°36'815.4
2019-Apr-23 14:01N 59°01' E 010°21'612.9
2019-Apr-23 13:31N 59°06' E 010°14'1 2.5
2019-Apr-23 13:00N 59°08' E 010°14'0 0.4
2019-Apr-23 12:31N 59°07' E 010°14'612.1
2019-Apr-23 12:01N 59°02' E 010°17'815.2
2019-Apr-23 11:31N 59°01' E 010°32'815.0
2019-Apr-23 11:01N 59°02' E 010°46'714.6
2019-Apr-23 10:31N 58°59' E 010°59'712.9
2019-Apr-23 10:00N 58°56' E 011°10'0 0.0
2019-Apr-23 09:31N 58°56' E 011°10'0 0.3
2019-Apr-23 09:00N 58°56' E 011°10'713.5
2019-Apr-23 08:30N 58°60' E 010°59'714.7
2019-Apr-23 08:01N 59°01' E 010°45'714.8
2019-Apr-23 07:31N 59°00' E 010°31'714.3
2019-Apr-23 07:01N 59°01' E 010°17'612.4
2019-Apr-23 06:30N 59°07' E 010°14'0 0.4
2019-Apr-23 06:01N 59°08' E 010°14'1 2.9
2019-Apr-23 05:31N 59°06' E 010°14'0 0.0
2019-Apr-23 04:56N 59°06' E 010°14'0 0.0
2019-Apr-23 04:29N 59°06' E 010°14'0 0.0
2019-Apr-23 04:00N 59°06' E 010°14'0 0.0
2019-Apr-23 03:30N 59°06' E 010°14'0 0.0
2019-Apr-23 03:00N 59°06' E 010°14'0 0.0
2019-Apr-23 02:28N 59°06' E 010°14'0 0.0
2019-Apr-23 01:58N 59°06' E 010°14'0 0.0
2019-Apr-23 01:29N 59°06' E 010°14'0 0.0
2019-Apr-23 00:59N 59°06' E 010°14'0 0.0
2019-Apr-23 00:29N 59°06' E 010°14'0 0.0
2019-Apr-23 00:00N 59°06' E 010°14'0 0.0
2019-Apr-22 23:30N 59°06' E 010°14'0 0.0
2019-Apr-22 23:00N 59°06' E 010°14'0 0.0
2019-Apr-22 22:31N 59°06' E 010°14'0 0.0
2019-Apr-22 21:58N 59°06' E 010°14'0 0.0
2019-Apr-22 21:28N 59°06' E 010°14'0 0.0
2019-Apr-22 20:59N 59°06' E 010°14'0 0.0
2019-Apr-22 20:29N 59°06' E 010°14'0 0.0
2019-Apr-22 19:59N 59°06' E 010°14'0 0.2
2019-Apr-22 19:30N 59°06' E 010°14'1 2.4
2019-Apr-22 18:58N 59°08' E 010°14'4 9.4
2019-Apr-22 18:31N 59°03' E 010°15'713.9
2019-Apr-22 18:01N 59°01' E 010°28'815.5
2019-Apr-22 17:30N 59°01' E 010°43'815.5
2019-Apr-22 17:00N 58°60' E 010°57'714.8
2019-Apr-22 16:30N 58°56' E 011°09'0 0.8
2019-Apr-22 16:00N 58°56' E 011°10'4 8.0
2019-Apr-22 15:30N 58°57' E 011°03'714.9
2019-Apr-22 15:00N 59°01' E 010°51'815.2
2019-Apr-22 14:30N 59°01' E 010°36'815.2
2019-Apr-22 14:01N 59°01' E 010°21'713.2
2019-Apr-22 13:30N 59°06' E 010°14'1 2.5
2019-Apr-22 13:00N 59°08' E 010°14'0 0.2
2019-Apr-22 12:31N 59°07' E 010°14'611.6
2019-Apr-22 12:01N 59°02' E 010°16'714.2
2019-Apr-22 11:30N 59°01' E 010°29'714.0
2019-Apr-22 11:00N 59°02' E 010°43'713.8
2019-Apr-22 10:30N 59°00' E 010°56'714.5
2019-Apr-22 10:00N 58°56' E 011°08'1 2.6
2019-Apr-22 09:30N 58°56' E 011°10'0 0.2
2019-Apr-22 09:00N 58°56' E 011°10'713.2
2019-Apr-22 08:30N 58°59' E 010°59'714.7
2019-Apr-22 08:00N 59°02' E 010°46'714.9
2019-Apr-22 07:30N 59°00' E 010°31'715.0
2019-Apr-22 07:01N 59°01' E 010°17'612.5
2019-Apr-22 06:31N 59°07' E 010°14'0 0.4
2019-Apr-22 06:01N 59°08' E 010°14'1 2.4
2019-Apr-22 05:31N 59°06' E 010°14'0 0.4
2019-Apr-22 04:58N 59°06' E 010°14'0 0.0
2019-Apr-22 04:28N 59°06' E 010°14'0 0.0
2019-Apr-22 03:59N 59°06' E 010°14'0 0.0
2019-Apr-22 03:29N 59°06' E 010°14'0 0.0
2019-Apr-22 02:59N 59°06' E 010°14'0 0.0
2019-Apr-22 02:30N 59°06' E 010°14'0 0.0
2019-Apr-22 02:00N 59°06' E 010°14'0 0.0
2019-Apr-22 01:30N 59°06' E 010°14'0 0.0
2019-Apr-22 00:58N 59°06' E 010°14'0 0.0
2019-Apr-22 00:28N 59°06' E 010°14'0 0.0
2019-Apr-21 23:58N 59°06' E 010°14'0 0.0
2019-Apr-21 23:29N 59°06' E 010°14'0 0.0
2019-Apr-21 22:59N 59°06' E 010°14'0 0.0
2019-Apr-21 22:29N 59°06' E 010°14'0 0.0
2019-Apr-21 22:00N 59°06' E 010°14'0 0.0
2019-Apr-21 21:30N 59°06' E 010°14'0 0.0
2019-Apr-21 21:00N 59°06' E 010°14'0 0.0
2019-Apr-21 20:28N 59°06' E 010°14'0 0.0
2019-Apr-21 19:58N 59°06' E 010°14'1 2.7
2019-Apr-21 19:28N 59°08' E 010°14'0 0.1
2019-Apr-21 19:00N 59°08' E 010°14'611.2
2019-Apr-21 18:30N 59°02' E 010°16'816.4
2019-Apr-21 18:01N 59°01' E 010°31'816.6
2019-Apr-21 17:30N 59°02' E 010°47'816.5
2019-Apr-21 17:01N 58°58' E 011°02'5 9.5
2019-Apr-21 16:30N 58°56' E 011°10'0 0.0
2019-Apr-21 16:01N 58°56' E 011°10'4 7.4
2019-Apr-21 15:30N 58°57' E 011°03'815.4
2019-Apr-21 15:01N 59°01' E 010°51'815.8
2019-Apr-21 14:31N 59°01' E 010°35'815.4
2019-Apr-21 14:00N 59°01' E 010°20'713.1
2019-Apr-21 13:30N 59°06' E 010°14'1 2.3
2019-Apr-21 13:01N 59°08' E 010°14'0 0.1
2019-Apr-21 12:31N 59°08' E 010°14'611.8
2019-Apr-21 12:00N 59°02' E 010°16'714.4
2019-Apr-21 11:31N 59°01' E 010°30'714.2
2019-Apr-21 11:01N 59°02' E 010°43'714.5
2019-Apr-21 10:30N 58°60' E 010°57'714.4
2019-Apr-21 10:00N 58°56' E 011°09'1 1.7
2019-Apr-21 09:31N 58°56' E 011°10'0 0.3
2019-Apr-21 09:00N 58°56' E 011°10'612.9
2019-Apr-21 08:31N 58°59' E 010°59'714.6
2019-Apr-21 08:01N 59°02' E 010°46'815.0
2019-Apr-21 07:30N 59°00' E 010°31'714.9
2019-Apr-21 07:00N 59°01' E 010°17'612.3
2019-Apr-21 06:31N 59°07' E 010°14'0 0.5
2019-Apr-21 06:01N 59°08' E 010°14'1 1.9
2019-Apr-21 05:30N 59°07' E 010°14'0 0.9
2019-Apr-21 04:59N 59°06' E 010°14'0 0.0
2019-Apr-21 04:30N 59°06' E 010°14'0 0.0
2019-Apr-21 04:00N 59°06' E 010°14'0 0.0
2019-Apr-21 03:30N 59°06' E 010°14'0 0.0
2019-Apr-21 02:58N 59°06' E 010°14'0 0.0
2019-Apr-21 02:28N 59°06' E 010°14'0 0.0
2019-Apr-21 01:58N 59°06' E 010°14'0 0.0
2019-Apr-21 01:29N 59°06' E 010°14'0 0.0
2019-Apr-21 00:59N 59°06' E 010°14'0 0.0
2019-Apr-21 00:29N 59°06' E 010°14'0 0.0
2019-Apr-21 00:00N 59°06' E 010°14'0 0.0
2019-Apr-20 23:30N 59°06' E 010°14'0 0.0
2019-Apr-20 23:00N 59°06' E 010°14'0 0.0
2019-Apr-20 22:28N 59°06' E 010°14'0 0.0
2019-Apr-20 21:58N 59°06' E 010°14'0 0.0
2019-Apr-20 21:28N 59°06' E 010°14'0 0.0
2019-Apr-20 20:59N 59°06' E 010°14'0 0.0
2019-Apr-20 20:29N 59°06' E 010°14'0 0.0
2019-Apr-20 19:59N 59°06' E 010°14'0 0.3
2019-Apr-20 19:30N 59°06' E 010°14'1 2.4
2019-Apr-20 18:58N 59°08' E 010°14'4 9.2
2019-Apr-20 18:31N 59°03' E 010°15'714.2
2019-Apr-20 18:01N 59°01' E 010°28'815.9
2019-Apr-20 17:31N 59°01' E 010°43'815.8
2019-Apr-20 17:01N 58°60' E 010°58'714.0
2019-Apr-20 16:30N 58°56' E 011°10'0 0.2
2019-Apr-20 16:00N 58°56' E 011°10'5 9.3
2019-Apr-20 15:30N 58°58' E 011°02'815.3
2019-Apr-20 15:00N 59°01' E 010°49'815.4
2019-Apr-20 14:31N 59°01' E 010°34'815.5
2019-Apr-20 14:01N 59°01' E 010°19'612.8
2019-Apr-20 13:30N 59°07' E 010°14'1 1.2
2019-Apr-20 13:01N 59°08' E 010°14'0 0.1
2019-Apr-20 12:30N 59°08' E 010°14'611.6
2019-Apr-20 12:01N 59°02' E 010°16'714.4
2019-Apr-20 11:30N 59°01' E 010°30'714.5
2019-Apr-20 11:01N 59°02' E 010°44'714.5
2019-Apr-20 10:30N 58°60' E 010°57'714.7
2019-Apr-20 10:00N 58°56' E 011°09'1 1.1
2019-Apr-20 09:30N 58°56' E 011°10'0 0.0
2019-Apr-20 09:01N 58°56' E 011°10'611.9
2019-Apr-20 08:30N 58°59' E 011°00'714.8
2019-Apr-20 08:00N 59°02' E 010°47'815.0
2019-Apr-20 07:30N 59°00' E 010°32'815.1
2019-Apr-20 07:00N 59°01' E 010°18'612.6
2019-Apr-20 06:31N 59°07' E 010°14'0 1.0
2019-Apr-20 06:00N 59°08' E 010°14'0 0.5
2019-Apr-20 05:30N 59°07' E 010°14'1 2.1
2019-Apr-20 04:58N 59°06' E 010°14'0 0.0
2019-Apr-20 04:28N 59°06' E 010°14'0 0.0
2019-Apr-20 03:58N 59°06' E 010°14'0 0.0
2019-Apr-20 03:29N 59°06' E 010°14'0 0.0
2019-Apr-20 02:59N 59°06' E 010°14'0 0.0
2019-Apr-20 02:29N 59°06' E 010°14'0 0.0
2019-Apr-20 02:00N 59°06' E 010°14'0 0.0
2019-Apr-20 01:30N 59°06' E 010°14'0 0.0
2019-Apr-20 01:00N 59°06' E 010°14'0 0.0
2019-Apr-20 00:28N 59°06' E 010°14'0 0.0
2019-Apr-19 23:58N 59°06' E 010°14'0 0.0
2019-Apr-19 23:28N 59°06' E 010°14'0 0.0
2019-Apr-19 22:59N 59°06' E 010°14'0 0.0
2019-Apr-19 22:29N 59°06' E 010°14'0 0.0
2019-Apr-19 21:59N 59°06' E 010°14'0 0.0
2019-Apr-19 21:30N 59°06' E 010°14'0 0.0
2019-Apr-19 21:00N 59°06' E 010°14'0 0.0
2019-Apr-19 20:30N 59°06' E 010°14'0 0.0
2019-Apr-19 19:58N 59°06' E 010°14'1 2.8
2019-Apr-19 19:28N 59°08' E 010°14'0 0.0
2019-Apr-19 19:01N 59°08' E 010°14'612.1
2019-Apr-19 18:31N 59°02' E 010°16'816.9
2019-Apr-19 18:01N 59°01' E 010°33'816.6
2019-Apr-19 17:30N 59°01' E 010°49'816.3
2019-Apr-19 17:00N 58°58' E 011°03'4 8.4
2019-Apr-19 16:30N 58°56' E 011°10'0 0.0
2019-Apr-19 16:00N 58°56' E 011°10'3 6.9
2019-Apr-19 15:31N 58°57' E 011°04'816.0
2019-Apr-19 15:00N 59°01' E 010°51'816.4
2019-Apr-19 14:30N 59°01' E 010°35'816.3
2019-Apr-19 14:01N 59°01' E 010°19'713.0
2019-Apr-19 13:30N 59°07' E 010°14'0 1.0
2019-Apr-19 13:01N 59°08' E 010°14'0 0.2
2019-Apr-19 12:30N 59°07' E 010°14'612.1
2019-Apr-19 12:01N 59°02' E 010°17'815.8
2019-Apr-19 11:30N 59°00' E 010°32'815.5
2019-Apr-19 11:00N 59°02' E 010°47'815.2
2019-Apr-19 10:31N 58°59' E 011°00'611.6
2019-Apr-19 10:00N 58°56' E 011°10'0 0.0
2019-Apr-19 09:31N 58°56' E 011°10'0 0.2
2019-Apr-19 09:00N 58°56' E 011°10'713.2
2019-Apr-19 08:30N 58°59' E 010°59'714.7
2019-Apr-19 08:00N 59°02' E 010°45'714.9
2019-Apr-19 07:30N 59°00' E 010°31'714.5
2019-Apr-19 07:01N 59°01' E 010°17'612.6
2019-Apr-19 06:31N 59°07' E 010°14'0 0.5
2019-Apr-19 06:01N 59°08' E 010°14'0 0.6
2019-Apr-19 05:30N 59°07' E 010°14'1 2.3
2019-Apr-19 05:00N 59°06' E 010°14'0 0.0
2019-Apr-19 04:28N 59°06' E 010°14'0 0.0
2019-Apr-19 03:58N 59°06' E 010°14'0 0.0
2019-Apr-19 03:28N 59°06' E 010°14'0 0.0
2019-Apr-19 02:59N 59°06' E 010°14'0 0.0
2019-Apr-19 02:29N 59°06' E 010°14'0 0.0
2019-Apr-19 01:59N 59°06' E 010°14'0 0.0
2019-Apr-19 01:30N 59°06' E 010°14'0 0.0
2019-Apr-19 01:00N 59°06' E 010°14'0 0.0
2019-Apr-19 00:30N 59°06' E 010°14'0 0.0
2019-Apr-18 23:58N 59°06' E 010°14'0 0.0
2019-Apr-18 23:25N 59°06' E 010°14'0 0.0
2019-Apr-18 22:58N 59°06' E 010°14'0 0.0
2019-Apr-18 22:23N 59°06' E 010°14'0 0.0
2019-Apr-18 21:59N 59°06' E 010°14'0 0.0
2019-Apr-18 21:29N 59°06' E 010°14'0 0.0
2019-Apr-18 20:57N 59°06' E 010°14'0 0.0
2019-Apr-18 20:30N 59°06' E 010°14'0 0.0
2019-Apr-18 20:00N 59°06' E 010°14'1 2.8
2019-Apr-18 19:29N 59°08' E 010°14'1 1.0
2019-Apr-18 18:59N 59°07' E 010°14'612.6
2019-Apr-18 18:31N 59°01' E 010°18'816.8
2019-Apr-18 18:00N 59°01' E 010°35'816.7
2019-Apr-18 17:31N 59°01' E 010°51'816.5
2019-Apr-18 17:01N 58°57' E 011°05'3 6.1
2019-Apr-18 16:30N 58°56' E 011°10'0 0.0
2019-Apr-18 16:00N 58°56' E 011°10'4 8.2
2019-Apr-18 15:30N 58°58' E 011°03'815.5
2019-Apr-18 15:00N 59°01' E 010°50'815.8
2019-Apr-18 14:30N 59°01' E 010°35'815.5
2019-Apr-18 14:00N 59°01' E 010°20'613.0
2019-Apr-18 13:31N 59°07' E 010°14'1 1.8
2019-Apr-18 13:01N 59°08' E 010°14'0 0.0
2019-Apr-18 12:31N 59°08' E 010°14'611.0
2019-Apr-18 12:01N 59°02' E 010°16'815.5
2019-Apr-18 11:31N 59°00' E 010°30'815.4
2019-Apr-18 11:00N 59°02' E 010°45'815.2
2019-Apr-18 10:31N 58°60' E 010°59'713.4
2019-Apr-18 10:00N 58°56' E 011°10'0 0.1
2019-Apr-18 09:31N 58°56' E 011°10'0 0.7
2019-Apr-18 09:00N 58°56' E 011°09'714.9
2019-Apr-18 08:31N 58°60' E 010°57'816.1
2019-Apr-18 08:00N 59°01' E 010°42'815.9
2019-Apr-18 07:31N 59°00' E 010°27'714.2
2019-Apr-18 07:00N 59°04' E 010°15'4 7.2
2019-Apr-18 06:31N 59°08' E 010°14'0 0.0
2019-Apr-18 06:01N 59°08' E 010°14'1 1.4
2019-Apr-18 05:31N 59°07' E 010°14'1 1.4
2019-Apr-18 04:59N 59°06' E 010°14'0 0.0
2019-Apr-18 04:29N 59°06' E 010°14'0 0.0
2019-Apr-18 04:00N 59°06' E 010°14'0 0.0
2019-Apr-18 03:30N 59°06' E 010°14'0 0.0
2019-Apr-18 03:00N 59°06' E 010°14'0 0.0
2019-Apr-18 02:28N 59°06' E 010°14'0 0.0
2019-Apr-18 01:58N 59°06' E 010°14'0 0.0
2019-Apr-18 01:28N 59°06' E 010°14'0 0.0
2019-Apr-18 00:59N 59°06' E 010°14'0 0.0
2019-Apr-18 00:29N 59°06' E 010°14'0 0.0
2019-Apr-17 23:59N 59°06' E 010°14'0 0.0
2019-Apr-17 23:30N 59°06' E 010°14'0 0.0
2019-Apr-17 23:00N 59°06' E 010°14'0 0.0
2019-Apr-17 22:30N 59°06' E 010°14'0 0.0
2019-Apr-17 21:58N 59°06' E 010°14'0 0.0
2019-Apr-17 21:28N 59°06' E 010°14'0 0.0
2019-Apr-17 20:58N 59°06' E 010°14'0 0.0
2019-Apr-17 20:29N 59°06' E 010°14'0 0.0
2019-Apr-17 19:59N 59°06' E 010°14'1 2.9
2019-Apr-17 19:29N 59°08' E 010°14'0 0.3
2019-Apr-17 19:00N 59°07' E 010°14'612.4
2019-Apr-17 18:31N 59°02' E 010°17'816.8
2019-Apr-17 18:00N 59°01' E 010°33'816.8
2019-Apr-17 17:31N 59°01' E 010°50'816.2
2019-Apr-17 17:00N 58°57' E 011°03'4 7.6
2019-Apr-17 16:30N 58°56' E 011°10'0 0.0
2019-Apr-17 16:00N 58°56' E 011°10'510.4
2019-Apr-17 15:31N 58°58' E 011°01'816.6
2019-Apr-17 15:01N 59°02' E 010°47'816.7
2019-Apr-17 14:30N 59°00' E 010°31'816.1
2019-Apr-17 14:00N 59°02' E 010°15'510.3
2019-Apr-17 13:30N 59°08' E 010°14'0 0.0
2019-Apr-17 13:01N 59°08' E 010°14'0 0.0
2019-Apr-17 12:30N 59°08' E 010°14'5 9.7
2019-Apr-17 12:00N 59°03' E 010°15'714.1
2019-Apr-17 11:31N 59°01' E 010°28'815.7
2019-Apr-17 11:01N 59°01' E 010°43'815.0
2019-Apr-17 10:30N 59°00' E 010°58'714.4
2019-Apr-17 10:00N 58°56' E 011°09'0 0.9
2019-Apr-17 09:30N 58°56' E 011°10'0 0.6
2019-Apr-17 09:00N 58°56' E 011°10'815.3
2019-Apr-17 08:31N 59°00' E 010°57'816.5
2019-Apr-17 08:01N 59°01' E 010°41'816.7
2019-Apr-17 07:31N 59°01' E 010°25'714.2
2019-Apr-17 07:00N 59°05' E 010°14'2 4.5
2019-Apr-17 06:30N 59°08' E 010°14'0 0.0
2019-Apr-17 06:00N 59°08' E 010°14'1 2.1
2019-Apr-17 05:31N 59°07' E 010°14'0 0.7
2019-Apr-17 05:01N 59°06' E 010°14'0 0.0
2019-Apr-17 04:29N 59°06' E 010°14'0 0.0
2019-Apr-17 03:59N 59°06' E 010°14'0 0.0
2019-Apr-17 03:29N 59°06' E 010°14'0 0.0
2019-Apr-17 03:00N 59°06' E 010°14'0 0.0
2019-Apr-17 02:30N 59°06' E 010°14'0 0.0
2019-Apr-17 02:00N 59°06' E 010°14'0 0.0
2019-Apr-17 01:28N 59°06' E 010°14'0 0.0
2019-Apr-17 00:58N 59°06' E 010°14'0 0.0
2019-Apr-17 00:28N 59°06' E 010°14'0 0.0
2019-Apr-16 23:59N 59°06' E 010°14'0 0.0
2019-Apr-16 23:29N 59°06' E 010°14'0 0.0
2019-Apr-16 22:59N 59°06' E 010°14'0 0.0
2019-Apr-16 22:30N 59°06' E 010°14'0 0.0
2019-Apr-16 22:00N 59°06' E 010°14'0 0.0
2019-Apr-16 21:30N 59°06' E 010°14'0 0.0
2019-Apr-16 20:58N 59°06' E 010°14'0 0.0
2019-Apr-16 20:28N 59°06' E 010°14'0 0.0
2019-Apr-16 20:00N 59°06' E 010°14'1 2.9
2019-Apr-16 19:31N 59°08' E 010°14'1 2.5
2019-Apr-16 19:01N 59°06' E 010°14'713.2
2019-Apr-16 18:31N 59°01' E 010°22'917.0
2019-Apr-16 18:01N 59°01' E 010°38'816.8
2019-Apr-16 17:31N 59°00' E 010°55'816.4
2019-Apr-16 17:00N 58°56' E 011°08'1 1.9
2019-Apr-16 16:31N 58°56' E 011°10'0 0.0
2019-Apr-16 16:01N 58°56' E 011°10'611.0
2019-Apr-16 15:30N 58°59' E 011°01'816.0
2019-Apr-16 15:00N 59°02' E 010°47'816.4
2019-Apr-16 14:31N 59°01' E 010°31'816.2
2019-Apr-16 14:00N 59°02' E 010°16'611.6
2019-Apr-16 13:31N 59°08' E 010°14'0 0.0
2019-Apr-16 13:01N 59°08' E 010°14'0 0.0
2019-Apr-16 12:31N 59°08' E 010°14'4 8.0
2019-Apr-16 12:01N 59°04' E 010°15'713.7
2019-Apr-16 11:31N 59°01' E 010°27'815.4
2019-Apr-16 11:01N 59°01' E 010°42'815.5
2019-Apr-16 10:30N 59°00' E 010°57'815.2
2019-Apr-16 10:00N 58°56' E 011°09'1 1.2
2019-Apr-16 09:31N 58°56' E 011°10'0 0.6
2019-Apr-16 09:00N 58°56' E 011°10'715.0
2019-Apr-16 08:30N 58°60' E 010°57'816.0
2019-Apr-16 08:01N 59°01' E 010°42'816.3
2019-Apr-16 07:31N 59°01' E 010°26'714.1
2019-Apr-16 07:00N 59°05' E 010°15'3 6.3
2019-Apr-16 06:31N 59°08' E 010°14'0 0.0
2019-Apr-16 06:00N 59°08' E 010°14'1 1.4
2019-Apr-16 05:30N 59°07' E 010°14'1 1.5
2019-Apr-16 05:01N 59°06' E 010°14'0 0.0
2019-Apr-16 04:29N 59°06' E 010°14'  

Dump ship's entire track history